createdAt,value
2024-03-04T00:00:01.007Z,5.30
2024-03-04T00:02:28.551Z,5.33
2024-03-04T00:04:56.045Z,5.40
2024-03-04T00:07:27.067Z,5.50
2024-03-04T00:09:54.998Z,5.59
2024-03-04T00:12:22.639Z,5.71
2024-03-04T00:14:50.706Z,5.84
2024-03-04T00:17:18.277Z,5.91
2024-03-04T00:19:45.953Z,5.93
2024-03-04T00:22:14.593Z,5.93
2024-03-04T00:24:42.223Z,5.92
2024-03-04T00:27:10.356Z,5.91
2024-03-04T00:29:37.821Z,5.87
2024-03-04T00:32:06.495Z,5.82
2024-03-04T00:34:34.890Z,5.79
2024-03-04T00:37:03.927Z,5.75
2024-03-04T00:39:31.532Z,5.70
2024-03-04T00:41:59.601Z,5.69
2024-03-04T00:44:27.112Z,5.67
2024-03-04T00:46:55.543Z,5.65
2024-03-04T00:49:23.137Z,5.59
2024-03-04T00:51:51.091Z,5.55
2024-03-04T00:54:19.510Z,5.50
2024-03-04T00:56:47.030Z,5.46
2024-03-04T00:59:14.762Z,5.41
2024-03-04T01:01:42.336Z,5.37
2024-03-04T01:04:09.946Z,5.40
2024-03-04T01:06:39.799Z,5.46
2024-03-04T01:09:07.478Z,5.54
2024-03-04T01:11:35.020Z,5.60
2024-03-04T01:14:02.531Z,5.65
2024-03-04T01:16:32.413Z,5.69
2024-03-04T01:19:00.761Z,5.71
2024-03-04T01:21:29.151Z,5.73
2024-03-04T01:23:58.181Z,5.70
2024-03-04T01:26:25.725Z,5.66
2024-03-04T01:28:53.312Z,5.63
2024-03-04T01:31:22.757Z,5.59
2024-03-04T01:33:50.848Z,5.53
2024-03-04T01:36:19.444Z,5.50
2024-03-04T01:38:46.957Z,5.46
2024-03-04T01:41:14.460Z,5.41
2024-03-04T01:43:42.080Z,5.38
2024-03-04T01:46:09.968Z,5.38
2024-03-04T01:48:37.464Z,5.38
2024-03-04T01:51:05.118Z,5.34
2024-03-04T01:53:33.137Z,5.31
2024-03-04T01:56:05.181Z,5.28
2024-03-04T01:58:32.942Z,5.27
2024-03-04T02:01:01.361Z,5.30
2024-03-04T02:03:30.553Z,5.37
2024-03-04T02:05:58.156Z,5.45
2024-03-04T02:08:25.709Z,5.53
2024-03-04T02:10:53.677Z,5.61
2024-03-04T02:13:22.163Z,5.64
2024-03-04T02:15:49.924Z,5.65
2024-03-04T02:18:20.863Z,5.68
2024-03-04T02:20:48.526Z,5.65
2024-03-04T02:23:16.207Z,5.62
2024-03-04T02:25:58.208Z,5.59
2024-03-04T02:28:29.127Z,5.55
2024-03-04T02:31:01.231Z,5.47
2024-03-04T02:33:29.590Z,5.41
2024-03-04T02:35:57.415Z,5.34
2024-03-04T02:38:25.102Z,5.30
2024-03-04T02:40:52.761Z,5.28
2024-03-04T02:43:20.451Z,5.25
2024-03-04T02:45:48.029Z,5.20
2024-03-04T02:48:15.508Z,5.16
2024-03-04T02:50:43.050Z,5.13
2024-03-04T02:55:17.705Z,4.73
2024-03-04T02:57:45.404Z,5.00
2024-03-04T03:00:13.713Z,5.07
2024-03-04T03:02:41.407Z,5.15
2024-03-04T03:05:09.343Z,5.20
2024-03-04T03:07:36.964Z,5.28
2024-03-04T03:10:05.178Z,5.37
2024-03-04T03:12:34.146Z,5.45
2024-03-04T03:15:01.711Z,5.50
2024-03-04T03:17:29.530Z,5.51
2024-03-04T03:19:57.453Z,5.49
2024-03-04T03:22:25.191Z,5.45
2024-03-04T03:24:52.765Z,5.44
2024-03-04T03:27:20.330Z,5.41
2024-03-04T03:29:47.887Z,5.39
2024-03-04T03:32:15.544Z,5.34
2024-03-04T03:34:43.113Z,5.29
2024-03-04T03:37:10.696Z,5.24
2024-03-04T03:39:38.252Z,5.20
2024-03-04T03:42:09.253Z,5.17
2024-03-04T03:44:36.796Z,5.15
2024-03-04T03:47:04.490Z,5.10
2024-03-04T03:49:31.990Z,5.07
2024-03-04T03:51:59.572Z,5.06
2024-03-04T03:54:27.270Z,5.02
2024-03-04T03:56:54.746Z,4.99
2024-03-04T03:59:22.393Z,4.96
2024-03-04T04:01:50.172Z,4.93
2024-03-04T04:04:19.309Z,4.89
2024-03-04T04:06:46.850Z,4.86
2024-03-04T04:09:14.582Z,4.88
2024-03-04T04:11:44.740Z,4.91
2024-03-04T04:14:12.309Z,4.93
2024-03-04T04:16:40.545Z,4.97
2024-03-04T04:19:08.282Z,4.98
2024-03-04T04:21:35.858Z,4.98
2024-03-04T04:24:03.615Z,4.99
2024-03-04T04:26:31.166Z,4.99
2024-03-04T04:28:58.611Z,5.00
2024-03-04T04:31:26.255Z,4.97
2024-03-04T04:33:54.213Z,4.93
2024-03-04T04:36:21.947Z,4.87
2024-03-04T04:38:49.804Z,4.82
2024-03-04T04:41:17.367Z,4.76
2024-03-04T04:43:44.943Z,4.72
2024-03-04T04:46:12.574Z,4.71
2024-03-04T04:48:40.247Z,4.69
2024-03-04T04:51:07.761Z,4.67
2024-03-04T04:53:35.371Z,4.64
2024-03-04T04:56:03.027Z,4.62
2024-03-04T04:58:31.293Z,4.61
2024-03-04T05:00:59.168Z,4.59
2024-03-04T05:03:39.997Z,4.58
2024-03-04T05:06:15.830Z,4.62
2024-03-04T05:08:43.443Z,4.73
2024-03-04T05:11:11.211Z,4.85
2024-03-04T05:13:38.907Z,4.99
2024-03-04T05:16:07.129Z,5.12
2024-03-04T05:18:34.621Z,5.24
2024-03-04T05:21:05.367Z,5.32
2024-03-04T05:23:33.166Z,5.38
2024-03-04T05:26:00.984Z,5.42
2024-03-04T05:28:28.665Z,5.45
2024-03-04T05:30:58.473Z,5.46
2024-03-04T05:33:26.043Z,5.47
2024-03-04T05:35:53.832Z,5.46
2024-03-04T05:38:21.805Z,5.44
2024-03-04T05:40:49.311Z,5.42
2024-03-04T05:43:17.014Z,5.43
2024-03-04T05:45:44.708Z,5.44
2024-03-04T05:48:12.609Z,5.43
2024-03-04T05:50:40.525Z,5.42
2024-03-04T05:53:08.248Z,5.44
2024-03-04T05:55:36.898Z,5.44
2024-03-04T05:58:05.079Z,5.44
2024-03-04T06:00:33.637Z,5.44
2024-03-04T06:03:01.415Z,5.47
2024-03-04T06:05:28.976Z,5.50
2024-03-04T06:07:59.995Z,5.54
2024-03-04T06:10:28.841Z,5.65
2024-03-04T06:12:56.369Z,5.80
2024-03-04T06:15:23.965Z,5.93
2024-03-04T06:17:51.493Z,6.07
2024-03-04T06:20:19.082Z,6.22
2024-03-04T06:22:46.712Z,6.33
2024-03-04T06:25:14.401Z,6.43
2024-03-04T06:27:42.074Z,6.47
2024-03-04T06:30:14.094Z,6.49
2024-03-04T06:32:41.731Z,6.50
2024-03-04T06:35:09.641Z,6.53
2024-03-04T06:37:37.591Z,6.56
2024-03-04T06:40:05.813Z,6.58
2024-03-04T06:42:34.819Z,6.61
2024-03-04T06:45:02.391Z,6.64
2024-03-04T06:47:30.064Z,6.67
2024-03-04T06:49:57.685Z,6.69
2024-03-04T06:52:25.357Z,6.70
2024-03-04T06:54:53.116Z,6.70
2024-03-04T06:57:20.747Z,6.70
2024-03-04T06:59:48.287Z,6.69
2024-03-04T07:02:15.857Z,6.71
2024-03-04T07:04:43.604Z,6.71
2024-03-04T07:07:11.344Z,6.72
2024-03-04T07:09:38.817Z,6.74
2024-03-04T07:12:07.746Z,6.79
2024-03-04T07:14:35.429Z,6.86
2024-03-04T07:17:02.911Z,6.94
2024-03-04T07:19:30.581Z,7.02
2024-03-04T07:21:58.120Z,7.12
2024-03-04T07:24:25.618Z,7.26
2024-03-04T07:26:53.113Z,7.43
2024-03-04T07:29:27.253Z,7.60
2024-03-04T07:32:03.765Z,7.78
2024-03-04T07:34:31.329Z,7.89
2024-03-04T07:36:58.972Z,7.94
2024-03-04T07:39:26.779Z,7.99
2024-03-04T07:41:54.286Z,8.03
2024-03-04T07:44:21.773Z,8.05
2024-03-04T07:46:49.991Z,8.05
2024-03-04T07:49:19.556Z,8.06
2024-03-04T07:51:47.149Z,8.09
2024-03-04T07:54:14.822Z,8.16
2024-03-04T07:56:42.383Z,8.21
2024-03-04T07:59:10.008Z,8.23
2024-03-04T08:01:50.296Z,8.24
2024-03-04T08:04:18.758Z,8.26
2024-03-04T08:06:46.293Z,8.27
2024-03-04T08:09:15.685Z,8.27
2024-03-04T08:11:43.262Z,8.29
2024-03-04T08:14:13.207Z,8.33
2024-03-04T08:16:42.281Z,8.38
2024-03-04T08:19:12.604Z,8.44
2024-03-04T08:21:41.126Z,8.49
2024-03-04T08:24:08.703Z,8.53
2024-03-04T08:26:36.393Z,8.57
2024-03-04T08:29:03.972Z,8.61
2024-03-04T08:31:33.030Z,8.61
2024-03-04T08:34:00.623Z,8.64
2024-03-04T08:36:28.289Z,8.68
2024-03-04T08:38:55.785Z,8.73
2024-03-04T08:41:25.414Z,8.79
2024-03-04T08:43:53.375Z,8.85
2024-03-04T08:46:21.055Z,8.90
2024-03-04T08:48:48.785Z,8.96
2024-03-04T08:51:19.365Z,8.99
2024-03-04T08:53:46.921Z,9.04
2024-03-04T08:56:14.744Z,9.08
2024-03-04T08:58:43.346Z,9.14
2024-03-04T09:01:11.010Z,9.19
2024-03-04T09:03:41.698Z,9.24
2024-03-04T09:06:19.412Z,9.32
2024-03-04T09:08:48.246Z,9.41
2024-03-04T09:11:15.861Z,9.49
2024-03-04T09:13:43.937Z,9.58
2024-03-04T09:16:11.595Z,9.68
2024-03-04T09:18:42.330Z,9.78
2024-03-04T09:21:12.877Z,9.90
2024-03-04T09:23:43.485Z,10.00
2024-03-04T09:26:11.126Z,10.08
2024-03-04T09:28:38.747Z,10.15
2024-03-04T09:31:06.970Z,10.23
2024-03-04T09:33:34.710Z,10.30
2024-03-04T09:36:02.323Z,10.49
2024-03-04T09:38:29.934Z,10.59
2024-03-04T09:40:58.153Z,10.66
2024-03-04T09:43:29.007Z,10.73
2024-03-04T09:46:00.652Z,10.77
2024-03-04T09:48:28.744Z,10.86
2024-03-04T09:50:56.569Z,10.96
2024-03-04T09:53:24.308Z,11.01
2024-03-04T09:55:52.048Z,10.93
2024-03-04T09:58:19.939Z,10.91
2024-03-04T10:00:47.672Z,10.93
2024-03-04T10:03:15.427Z,10.97
2024-03-04T10:05:43.740Z,11.01
2024-03-04T10:08:11.212Z,11.07
2024-03-04T10:10:39.001Z,11.15
2024-03-04T10:13:11.692Z,11.23
2024-03-04T10:15:39.748Z,11.30
2024-03-04T10:18:14.124Z,11.38
2024-03-04T10:20:41.915Z,11.47
2024-03-04T10:23:10.350Z,11.56
2024-03-04T10:25:38.136Z,11.63
2024-03-04T10:28:08.987Z,11.68
2024-03-04T10:30:36.561Z,11.70
2024-03-04T10:33:04.882Z,11.74
2024-03-04T10:35:33.036Z,11.81
2024-03-04T10:38:03.512Z,11.89
2024-03-04T10:40:35.440Z,11.95
2024-03-04T10:43:05.843Z,12.02
2024-03-04T10:45:35.478Z,12.11
2024-03-04T10:48:03.670Z,12.23
2024-03-04T10:50:31.462Z,12.35
2024-03-04T10:53:02.810Z,12.43
2024-03-04T10:55:31.670Z,12.49
2024-03-04T10:58:02.865Z,12.57
2024-03-04T11:00:33.176Z,12.64
2024-03-04T11:03:00.959Z,12.71
2024-03-04T11:05:31.529Z,12.76
2024-03-04T11:08:06.016Z,12.79
2024-03-04T11:10:47.434Z,12.85
2024-03-04T11:13:21.208Z,12.91
2024-03-04T11:15:58.055Z,12.96
2024-03-04T11:19:15.990Z,12.99
2024-03-04T11:21:43.957Z,13.02
2024-03-04T11:24:11.482Z,13.03
2024-03-04T11:26:39.186Z,13.08
2024-03-04T11:29:07.217Z,13.16
2024-03-04T11:31:35.013Z,13.27
2024-03-04T11:34:07.254Z,13.39
2024-03-04T11:36:34.867Z,13.46
2024-03-04T11:39:14.361Z,13.51
2024-03-04T11:41:43.353Z,13.54
2024-03-04T11:44:11.009Z,13.58
2024-03-04T11:46:43.365Z,13.64
2024-03-04T11:49:27.820Z,13.68
2024-03-04T11:52:10.803Z,13.74
2024-03-04T11:54:38.387Z,13.82
2024-03-04T11:57:07.240Z,13.90
2024-03-04T11:59:34.946Z,13.99
2024-03-04T12:02:09.577Z,14.03
2024-03-04T12:04:37.664Z,14.07
2024-03-04T12:07:05.592Z,14.10
2024-03-04T12:12:06.534Z,14.28
2024-03-04T12:14:34.010Z,14.39
2024-03-04T12:17:02.130Z,14.48
2024-03-04T12:19:29.989Z,14.52
2024-03-04T12:21:57.655Z,14.51
2024-03-04T12:24:25.245Z,14.49
2024-03-04T12:26:52.984Z,14.46
2024-03-04T12:29:22.299Z,14.41
2024-03-04T12:31:51.666Z,14.40
2024-03-04T12:34:19.919Z,14.40
2024-03-04T12:36:51.452Z,14.41
2024-03-04T12:39:21.175Z,14.42
2024-03-04T12:41:49.560Z,14.41
2024-03-04T12:44:19.872Z,14.40
2024-03-04T12:46:50.568Z,14.41
2024-03-04T12:49:18.188Z,14.44
2024-03-04T12:51:46.749Z,14.44
2024-03-04T12:54:32.606Z,14.45
2024-03-04T12:57:00.265Z,14.48
2024-03-04T12:59:28.856Z,14.53
2024-03-04T13:01:56.442Z,14.60
2024-03-04T13:04:24.201Z,14.69
2024-03-04T13:06:51.843Z,14.80
2024-03-04T13:09:19.396Z,15.08
2024-03-04T13:11:47.555Z,15.26
2024-03-04T13:14:21.447Z,15.41
2024-03-04T13:16:50.237Z,15.81
2024-03-04T13:19:17.794Z,16.30
2024-03-04T13:21:45.396Z,16.79
2024-03-04T13:24:12.940Z,17.20
2024-03-04T13:26:41.884Z,17.56
2024-03-04T13:29:11.866Z,17.73
2024-03-04T13:31:40.104Z,17.74
2024-03-04T13:34:08.213Z,17.68
2024-03-04T13:36:36.272Z,17.65
2024-03-04T13:39:04.071Z,17.58
2024-03-04T13:41:31.905Z,17.52
2024-03-04T13:43:59.653Z,17.46
2024-03-04T13:46:29.534Z,17.39
2024-03-04T13:48:57.248Z,17.28
2024-03-04T13:51:24.805Z,17.11
2024-03-04T13:53:52.413Z,16.87
2024-03-04T13:56:19.921Z,16.62
2024-03-04T13:58:47.562Z,16.32
2024-03-04T14:01:15.256Z,16.00
2024-03-04T14:03:42.855Z,15.71
2024-03-04T14:06:10.377Z,15.48
2024-03-04T14:08:37.963Z,15.29
2024-03-04T14:11:06.069Z,15.12
2024-03-04T14:13:33.792Z,14.94
2024-03-04T14:16:01.326Z,14.76
2024-03-04T14:18:28.826Z,14.55
2024-03-04T14:20:56.503Z,14.34
2024-03-04T14:23:26.392Z,14.14
2024-03-04T14:25:54.102Z,13.99
2024-03-04T14:28:21.966Z,13.85
2024-03-04T14:30:49.552Z,13.73
2024-03-04T14:33:17.087Z,13.62
2024-03-04T14:35:44.875Z,13.51
2024-03-04T14:38:12.469Z,13.38
2024-03-04T14:40:40.192Z,13.27
2024-03-04T14:43:08.814Z,13.19
2024-03-04T14:45:36.466Z,13.12
2024-03-04T14:48:05.471Z,13.05
2024-03-04T14:50:33.112Z,12.98
2024-03-04T14:53:00.605Z,12.91
2024-03-04T14:55:28.294Z,12.84
2024-03-04T14:57:55.844Z,12.76
2024-03-04T15:00:23.507Z,12.68
2024-03-04T15:02:52.502Z,12.61
2024-03-04T15:05:21.188Z,12.57
2024-03-04T15:07:48.754Z,12.51
2024-03-04T15:23:34.376Z,12.17
2024-03-04T15:26:02.987Z,12.52
2024-03-04T15:28:30.757Z,12.42
2024-03-04T15:30:58.420Z,12.33
2024-03-04T15:33:25.946Z,12.25
2024-03-04T15:35:59.702Z,12.16
2024-03-04T15:38:30.493Z,12.04
2024-03-04T15:41:01.021Z,11.95
2024-03-04T15:43:28.639Z,11.88
2024-03-04T15:45:56.254Z,11.82
2024-03-04T15:48:23.708Z,11.75
2024-03-04T15:50:51.182Z,11.66
2024-03-04T15:53:18.738Z,11.59
2024-03-04T15:55:46.258Z,11.54
2024-03-04T15:58:13.931Z,11.48
2024-03-04T16:00:41.753Z,11.44
2024-03-04T16:03:09.397Z,11.38
2024-03-04T16:05:36.963Z,11.33
2024-03-04T16:08:05.249Z,11.29
2024-03-04T16:10:32.946Z,11.22
2024-03-04T16:13:00.664Z,11.14
2024-03-04T16:15:40.539Z,11.06
2024-03-04T16:18:12.805Z,10.97
2024-03-04T16:20:40.406Z,10.90
2024-03-04T16:23:08.469Z,10.84
2024-03-04T16:25:36.055Z,10.78
2024-03-04T16:28:04.914Z,10.73
2024-03-04T16:30:32.553Z,10.68
2024-03-04T16:33:02.671Z,10.63
2024-03-04T16:35:30.471Z,10.59
2024-03-04T16:37:58.234Z,10.56
2024-03-04T16:40:26.027Z,10.52
2024-03-04T16:42:54.086Z,10.48
2024-03-04T16:45:21.629Z,10.44
2024-03-04T16:47:49.215Z,10.36
2024-03-04T16:50:18.797Z,10.28
2024-03-04T16:52:46.671Z,10.22
2024-03-04T16:55:14.377Z,10.16
2024-03-04T16:57:42.040Z,10.12
2024-03-04T17:00:10.414Z,10.06
2024-03-04T17:02:38.713Z,9.98
2024-03-04T17:05:11.484Z,9.93
2024-03-04T17:07:42.045Z,9.88
2024-03-04T17:10:12.957Z,9.82
2024-03-04T17:12:40.770Z,9.78
2024-03-04T17:15:09.394Z,9.74
2024-03-04T17:17:37.008Z,9.70
2024-03-04T17:20:11.049Z,9.66
2024-03-04T17:22:38.877Z,9.64
2024-03-04T17:25:07.044Z,9.61
2024-03-04T17:27:34.648Z,9.59
2024-03-04T17:30:02.527Z,9.58
2024-03-04T17:32:30.518Z,9.57
2024-03-04T17:34:58.417Z,9.56
2024-03-04T17:37:26.137Z,9.54
2024-03-04T17:39:54.028Z,9.49
2024-03-04T17:42:21.485Z,9.45
2024-03-04T17:44:49.299Z,9.42
2024-03-04T17:47:16.873Z,9.40
2024-03-04T17:49:49.238Z,9.42
2024-03-04T17:52:17.429Z,9.42
2024-03-04T17:54:45.459Z,9.41
2024-03-04T17:57:13.120Z,9.40
2024-03-04T17:59:42.356Z,9.40
2024-03-04T18:02:10.430Z,9.39
2024-03-04T18:04:38.104Z,9.37
2024-03-04T18:07:05.733Z,9.33
2024-03-04T18:09:33.968Z,9.30
2024-03-04T18:12:02.489Z,9.28
2024-03-04T18:14:30.111Z,9.25
2024-03-04T18:16:57.810Z,9.21
2024-03-04T18:19:25.460Z,9.20
2024-03-04T18:21:53.278Z,9.16
2024-03-04T18:24:20.893Z,9.12
2024-03-04T18:26:48.565Z,9.09
2024-03-04T18:29:16.625Z,9.07
2024-03-04T18:31:44.189Z,9.03
2024-03-04T18:34:15.268Z,9.00
2024-03-04T18:36:46.025Z,9.00
2024-03-04T18:39:16.658Z,8.98
2024-03-04T18:41:44.140Z,8.98
2024-03-04T18:44:11.761Z,9.00
2024-03-04T18:46:46.840Z,9.01
2024-03-04T18:49:17.506Z,9.02
2024-03-04T18:51:45.097Z,9.00
2024-03-04T18:54:16.812Z,8.99
2024-03-04T18:56:45.074Z,8.98
2024-03-04T18:59:12.633Z,8.99
2024-03-04T19:01:40.224Z,9.00
2024-03-04T19:04:08.020Z,9.05
2024-03-04T19:06:35.810Z,9.13
2024-03-04T19:09:04.217Z,9.23
2024-03-04T19:11:35.190Z,9.30
2024-03-04T19:14:02.856Z,9.34
2024-03-04T19:16:30.376Z,9.34
2024-03-04T19:18:58.233Z,9.31
2024-03-04T19:21:27.473Z,9.28
2024-03-04T19:23:55.259Z,9.26
2024-03-04T19:26:23.081Z,9.23
2024-03-04T19:28:52.495Z,9.19
2024-03-04T19:31:23.981Z,9.14
2024-03-04T19:33:54.305Z,9.09
2024-03-04T19:36:22.635Z,9.04
2024-03-04T19:38:50.214Z,8.99
2024-03-04T19:41:21.943Z,8.93
2024-03-04T19:43:50.388Z,8.88
2024-03-04T19:46:19.314Z,8.82
2024-03-04T19:48:50.730Z,8.78
2024-03-04T19:51:26.656Z,8.75
2024-03-04T19:53:55.029Z,8.72
2024-03-04T19:56:22.819Z,8.71
2024-03-04T19:58:52.942Z,8.67
2024-03-04T20:01:22.810Z,8.64
2024-03-04T20:03:50.536Z,8.61
2024-03-04T20:06:18.168Z,8.59
2024-03-04T20:08:46.930Z,8.54
2024-03-04T20:11:15.523Z,8.51
2024-03-04T20:13:43.803Z,8.48
2024-03-04T20:16:14.047Z,8.46
2024-03-04T20:18:42.238Z,8.48
2024-03-04T20:21:12.577Z,8.52
2024-03-04T20:23:42.245Z,8.57
2024-03-04T20:26:10.088Z,8.58
2024-03-04T20:28:37.893Z,8.60
2024-03-04T20:31:06.039Z,8.61
2024-03-04T20:33:34.338Z,8.56
2024-03-04T20:36:02.819Z,8.50
2024-03-04T20:38:31.774Z,8.45
2024-03-04T20:40:59.309Z,8.40
2024-03-04T20:43:26.978Z,8.34
2024-03-04T20:45:54.721Z,8.28
2024-03-04T20:48:22.680Z,8.19
2024-03-04T20:50:50.292Z,8.11
2024-03-04T20:53:18.069Z,8.04
2024-03-04T20:55:45.770Z,7.98
2024-03-04T20:58:13.629Z,7.93
2024-03-04T21:00:41.320Z,7.88
2024-03-04T21:03:09.218Z,7.81
2024-03-04T21:05:37.714Z,7.75
2024-03-04T21:08:07.144Z,7.70
2024-03-04T21:10:35.168Z,7.64
2024-03-04T21:13:03.368Z,7.58
2024-03-04T21:15:30.909Z,7.52
2024-03-04T21:17:59.373Z,7.46
2024-03-04T21:20:27.931Z,7.43
2024-03-04T21:22:56.561Z,7.41
2024-03-04T21:25:24.579Z,7.47
2024-03-04T21:27:54.084Z,7.54
2024-03-04T21:30:22.866Z,7.61
2024-03-04T21:32:50.791Z,7.68
2024-03-04T21:35:18.697Z,7.75
2024-03-04T21:37:46.540Z,7.82
2024-03-04T21:40:15.325Z,7.87
2024-03-04T21:42:43.631Z,7.89
2024-03-04T21:45:11.712Z,7.89
2024-03-04T21:47:39.307Z,7.88
2024-03-04T21:50:11.052Z,7.86
2024-03-04T21:52:39.868Z,7.81
2024-03-04T21:55:08.505Z,7.77
2024-03-04T21:57:36.359Z,7.74
2024-03-04T22:00:15.821Z,7.70
2024-03-04T22:02:44.496Z,7.65
2024-03-04T22:05:12.326Z,7.62
2024-03-04T22:07:41.611Z,7.58
2024-03-04T22:10:12.567Z,7.55
2024-03-04T22:12:43.632Z,7.50
2024-03-04T22:15:11.410Z,7.44
2024-03-04T22:17:39.303Z,7.40
2024-03-04T22:20:14.402Z,7.43
2024-03-04T22:22:42.255Z,7.50
2024-03-04T22:25:10.221Z,7.58
2024-03-04T22:27:37.799Z,7.66
2024-03-04T22:30:05.692Z,7.70
2024-03-04T22:32:33.418Z,7.73
2024-03-04T22:35:02.183Z,7.75
2024-03-04T22:37:32.023Z,7.75
2024-03-04T22:39:59.811Z,7.73
2024-03-04T22:42:27.503Z,7.69
2024-03-04T22:44:55.191Z,7.65
2024-03-04T22:47:24.544Z,7.60
2024-03-04T22:49:52.501Z,7.53
2024-03-04T22:52:20.534Z,7.46
2024-03-04T22:54:49.413Z,7.39
2024-03-04T22:57:17.019Z,7.32
2024-03-04T22:59:45.451Z,7.24
2024-03-04T23:02:13.815Z,7.18
2024-03-04T23:04:41.688Z,7.16
2024-03-04T23:07:09.557Z,7.19
2024-03-04T23:09:38.613Z,7.22
2024-03-04T23:12:09.768Z,7.23
2024-03-04T23:14:38.129Z,7.23
2024-03-04T23:17:09.652Z,7.21
2024-03-04T23:19:37.619Z,7.17
2024-03-04T23:22:07.015Z,7.12
2024-03-04T23:24:34.564Z,7.05
2024-03-04T23:27:02.378Z,6.97
2024-03-04T23:29:30.093Z,6.89
2024-03-04T23:31:57.843Z,6.80
2024-03-04T23:34:25.569Z,6.70
2024-03-04T23:36:55.383Z,6.62
2024-03-04T23:39:24.454Z,6.53
2024-03-04T23:41:52.479Z,6.45
2024-03-04T23:44:21.174Z,6.38
2024-03-04T23:46:48.814Z,6.38
2024-03-04T23:49:16.469Z,6.43
2024-03-04T23:51:44.277Z,6.48
2024-03-04T23:54:11.784Z,6.54
2024-03-04T23:56:42.879Z,6.56
2024-03-04T23:59:10.797Z,6.55
